createdAt,value
2023-09-19T00:02:06.329Z,16.01
2023-09-19T00:04:34.278Z,16.03
2023-09-19T00:07:04.311Z,16.06
2023-09-19T00:09:31.979Z,16.07
2023-09-19T00:11:59.034Z,16.09
2023-09-19T00:14:26.958Z,16.11
2023-09-19T00:16:54.201Z,16.10
2023-09-19T00:19:21.673Z,16.11
2023-09-19T00:21:48.707Z,16.09
2023-09-19T00:24:15.703Z,16.08
2023-09-19T00:26:46.359Z,16.06
2023-09-19T00:29:15.209Z,16.07
2023-09-19T00:31:46.565Z,16.07
2023-09-19T00:34:13.951Z,16.14
2023-09-19T00:36:41.461Z,16.15
2023-09-19T00:39:10.012Z,16.15
2023-09-19T00:41:39.797Z,16.10
2023-09-19T00:44:07.418Z,16.10
2023-09-19T00:46:35.248Z,16.10
2023-09-19T00:49:03.187Z,16.11
2023-09-19T00:51:31.205Z,16.12
2023-09-19T00:54:00.851Z,16.13
2023-09-19T00:56:28.281Z,16.13
2023-09-19T00:58:56.194Z,16.15
2023-09-19T01:01:23.489Z,16.16
2023-09-19T01:03:51.563Z,16.19
2023-09-19T01:06:19.187Z,16.20
2023-09-19T01:08:46.204Z,16.23
2023-09-19T01:11:30.243Z,16.24
2023-09-19T01:14:27.169Z,16.25
2023-09-19T01:17:25.609Z,16.29
2023-09-19T01:20:29.672Z,16.29
2023-09-19T01:23:50.415Z,16.26
2023-09-19T01:27:16.392Z,16.27
2023-09-19T01:29:50.415Z,16.29
2023-09-19T01:32:23.753Z,16.32
2023-09-19T01:35:00.771Z,16.32
2023-09-19T01:37:28.658Z,16.34
2023-09-19T01:40:18.345Z,16.37
2023-09-19T01:43:19.550Z,16.36
2023-09-19T01:46:11.050Z,16.39
2023-09-19T01:49:24.007Z,16.36
2023-09-19T01:52:18.068Z,16.39
2023-09-19T01:54:59.895Z,16.36
2023-09-19T01:57:34.443Z,16.41
2023-09-19T02:00:11.904Z,16.43
2023-09-19T02:02:49.465Z,16.43
2023-09-19T02:05:28.716Z,16.42
2023-09-19T02:07:57.533Z,16.46
2023-09-19T02:10:24.828Z,16.47
2023-09-19T02:12:52.640Z,16.46
2023-09-19T02:15:20.208Z,16.49
2023-09-19T02:17:47.591Z,16.50
2023-09-19T02:20:16.719Z,16.49
2023-09-19T02:22:43.864Z,16.45
2023-09-19T02:25:11.165Z,16.42
2023-09-19T02:27:38.809Z,16.40
2023-09-19T02:30:07.737Z,16.41
2023-09-19T02:32:40.140Z,16.40
2023-09-19T02:35:08.628Z,16.41
2023-09-19T02:37:36.538Z,16.35
2023-09-19T02:40:04.150Z,16.36
2023-09-19T02:42:31.793Z,16.39
2023-09-19T02:44:58.995Z,16.42
2023-09-19T02:47:26.645Z,16.43
2023-09-19T02:49:53.851Z,16.43
2023-09-19T02:52:20.959Z,16.39
2023-09-19T02:54:48.362Z,16.34
2023-09-19T02:57:16.857Z,16.33
2023-09-19T02:59:45.221Z,16.30
2023-09-19T03:02:12.387Z,16.25
2023-09-19T03:04:39.661Z,16.21
2023-09-19T03:07:07.517Z,16.19
2023-09-19T03:09:34.646Z,16.19
2023-09-19T03:12:01.793Z,16.15
2023-09-19T03:14:31.936Z,16.11
2023-09-19T03:16:59.029Z,16.11
2023-09-19T03:19:27.818Z,16.08
2023-09-19T03:21:56.714Z,16.09
2023-09-19T03:24:24.843Z,16.06
2023-09-19T03:26:52.377Z,16.01
2023-09-19T03:29:19.975Z,15.95
2023-09-19T03:31:50.409Z,16.02
2023-09-19T03:34:17.754Z,16.02
2023-09-19T03:36:45.040Z,15.98
2023-09-19T03:39:14.255Z,16.00
2023-09-19T03:41:41.425Z,16.04
2023-09-19T03:44:08.924Z,16.07
2023-09-19T03:46:37.670Z,16.09
2023-09-19T03:49:04.834Z,16.13
2023-09-19T03:51:31.958Z,16.13
2023-09-19T03:54:01.175Z,16.15
2023-09-19T03:56:28.198Z,16.12
2023-09-19T03:58:55.279Z,16.12
2023-09-19T04:01:22.613Z,16.13
2023-09-19T04:03:49.737Z,16.13
2023-09-19T04:06:18.066Z,16.14
2023-09-19T04:08:45.945Z,16.14
2023-09-19T04:11:13.524Z,16.06
2023-09-19T04:13:40.956Z,16.07
2023-09-19T04:16:08.686Z,16.05
2023-09-19T04:18:38.792Z,16.04
2023-09-19T04:21:07.058Z,16.03
2023-09-19T04:23:34.904Z,16.01
2023-09-19T04:26:02.333Z,15.97
2023-09-19T04:28:29.475Z,15.97
2023-09-19T04:30:56.987Z,15.92
2023-09-19T04:33:24.168Z,15.86
2023-09-19T04:35:52.683Z,15.84
2023-09-19T04:38:20.891Z,15.82
2023-09-19T04:40:49.558Z,15.82
2023-09-19T04:43:18.041Z,15.79
2023-09-19T04:45:45.218Z,15.76
2023-09-19T04:48:12.743Z,15.78
2023-09-19T04:50:40.140Z,15.85
2023-09-19T04:53:08.657Z,15.90
2023-09-19T04:55:35.767Z,15.91
2023-09-19T04:58:07.502Z,15.97
2023-09-19T05:00:36.789Z,15.99
2023-09-19T05:03:06.043Z,16.03
2023-09-19T05:05:33.773Z,16.06
2023-09-19T05:08:06.851Z,16.08
2023-09-19T05:10:34.539Z,16.15
2023-09-19T05:13:02.347Z,16.15
2023-09-19T05:15:29.558Z,16.10
2023-09-19T05:17:58.250Z,16.09
2023-09-19T05:20:31.540Z,16.13
2023-09-19T05:23:13.756Z,16.11
2023-09-19T05:25:42.138Z,16.10
2023-09-19T05:28:13.325Z,16.09
2023-09-19T05:30:41.292Z,16.06
2023-09-19T05:33:09.662Z,16.09
2023-09-19T05:35:43.348Z,16.11
2023-09-19T05:38:10.948Z,16.17
2023-09-19T05:40:40.486Z,16.21
2023-09-19T05:43:07.903Z,16.28
2023-09-19T05:45:35.328Z,16.31
2023-09-19T05:48:17.580Z,16.35
2023-09-19T05:50:50.434Z,16.42
2023-09-19T05:53:17.738Z,16.46
2023-09-19T05:55:45.101Z,16.53
2023-09-19T05:58:15.600Z,16.60
2023-09-19T06:00:44.479Z,16.72
2023-09-19T06:03:13.398Z,16.77
2023-09-19T06:05:41.196Z,16.82
2023-09-19T06:08:09.445Z,16.85
2023-09-19T06:10:37.417Z,16.86
2023-09-19T06:13:11.440Z,16.88
2023-09-19T06:15:38.876Z,16.92
2023-09-19T06:18:07.057Z,16.90
2023-09-19T06:20:34.835Z,16.93
2023-09-19T06:23:03.741Z,16.97
2023-09-19T06:25:32.138Z,17.10
2023-09-19T06:27:59.446Z,17.10
2023-09-19T06:30:27.184Z,17.20
2023-09-19T06:33:02.436Z,17.38
2023-09-19T06:35:34.527Z,17.58
2023-09-19T06:38:05.951Z,17.79
2023-09-19T06:40:33.304Z,17.94
2023-09-19T06:43:03.822Z,17.90
2023-09-19T06:45:31.116Z,17.97
2023-09-19T06:48:00.007Z,18.06
2023-09-19T06:50:28.616Z,18.06
2023-09-19T06:52:59.353Z,18.18
2023-09-19T06:55:33.493Z,18.32
2023-09-19T06:58:01.343Z,18.36
2023-09-19T07:00:29.852Z,18.33
2023-09-19T07:03:02.809Z,18.33
2023-09-19T07:05:33.474Z,18.39
2023-09-19T07:08:02.579Z,18.34
2023-09-19T07:10:30.274Z,18.30
2023-09-19T07:13:01.768Z,18.26
2023-09-19T07:15:32.392Z,18.16
2023-09-19T07:17:59.577Z,18.22
2023-09-19T07:20:33.489Z,18.22
2023-09-19T07:23:01.382Z,18.21
2023-09-19T07:25:29.860Z,18.38
2023-09-19T07:28:02.002Z,18.59
2023-09-19T07:30:30.787Z,18.56
2023-09-19T07:32:58.246Z,18.39
2023-09-19T07:35:25.643Z,18.37
2023-09-19T07:37:57.939Z,18.56
2023-09-19T07:40:28.522Z,18.77
2023-09-19T07:42:57.050Z,18.98
2023-09-19T07:45:24.372Z,19.40
2023-09-19T07:47:53.257Z,19.40
2023-09-19T07:50:21.729Z,19.52
2023-09-19T07:52:56.983Z,19.41
2023-09-19T07:55:26.832Z,19.48
2023-09-19T07:57:54.663Z,19.35
2023-09-19T08:00:22.345Z,19.43
2023-09-19T08:02:53.693Z,19.45
2023-09-19T08:05:28.991Z,19.51
2023-09-19T08:07:59.425Z,19.46
2023-09-19T08:10:29.464Z,19.51
2023-09-19T08:12:59.731Z,19.56
2023-09-19T08:15:26.962Z,19.67
2023-09-19T08:17:54.676Z,19.60
2023-09-19T08:20:22.490Z,19.53
2023-09-19T08:22:58.605Z,19.69
2023-09-19T08:25:28.147Z,19.69
2023-09-19T08:27:58.665Z,20.03
2023-09-19T08:30:26.482Z,20.03
2023-09-19T08:33:00.387Z,20.39
2023-09-19T08:35:29.034Z,20.58
2023-09-19T08:37:57.252Z,20.02
2023-09-19T08:40:26.339Z,20.28
2023-09-19T08:42:56.888Z,21.04
2023-09-19T08:45:31.360Z,22.44
2023-09-19T08:48:07.914Z,23.05
2023-09-19T08:50:53.047Z,23.05
2023-09-19T08:53:50.395Z,22.71
2023-09-19T08:56:21.441Z,22.71
2023-09-19T08:58:51.391Z,23.38
2023-09-19T09:01:26.456Z,23.38
2023-09-19T09:03:56.396Z,24.02
2023-09-19T09:06:26.183Z,24.02
2023-09-19T09:08:54.202Z,24.59
2023-09-19T09:11:23.225Z,25.82
2023-09-19T09:13:50.908Z,25.32
2023-09-19T09:16:20.856Z,24.38
2023-09-19T09:18:54.735Z,23.84
2023-09-19T09:21:26.663Z,23.37
2023-09-19T09:23:55.207Z,23.02
2023-09-19T09:26:40.780Z,22.64
2023-09-19T09:29:08.330Z,22.39
2023-09-19T09:31:35.897Z,22.03
2023-09-19T09:34:03.397Z,21.47
2023-09-19T09:36:45.410Z,20.98
2023-09-19T09:39:26.763Z,20.60
2023-09-19T09:41:54.737Z,20.58
2023-09-19T09:44:24.252Z,20.71
2023-09-19T09:46:54.707Z,20.71
2023-09-19T09:49:33.439Z,20.75
2023-09-19T09:52:18.731Z,20.57
2023-09-19T09:55:07.474Z,20.63
2023-09-19T09:57:36.169Z,20.63
2023-09-19T10:00:14.204Z,20.57
2023-09-19T10:02:42.903Z,20.68
2023-09-19T10:05:36.464Z,20.99
2023-09-19T10:08:27.927Z,21.56
2023-09-19T10:10:55.863Z,21.56
2023-09-19T10:13:32.565Z,21.63
2023-09-19T10:16:09.483Z,21.51
2023-09-19T10:18:40.739Z,21.51
2023-09-19T10:21:12.424Z,21.52
2023-09-19T10:23:44.477Z,21.53
2023-09-19T10:26:13.452Z,21.57
2023-09-19T10:28:41.265Z,21.57
2023-09-19T10:31:11.192Z,21.61
2023-09-19T10:33:39.764Z,21.52
2023-09-19T10:36:08.438Z,21.52
2023-09-19T10:38:42.592Z,21.70
2023-09-19T10:41:15.975Z,21.76
2023-09-19T10:43:48.198Z,21.76
2023-09-19T10:46:15.904Z,21.61
2023-09-19T10:48:50.368Z,21.61
2023-09-19T10:51:25.881Z,21.25
2023-09-19T10:54:15.132Z,21.25
2023-09-19T10:56:52.714Z,21.11
2023-09-19T10:59:23.440Z,20.95
2023-09-19T11:01:53.961Z,20.82
2023-09-19T11:04:38.585Z,20.69
2023-09-19T11:07:16.799Z,20.60
2023-09-19T11:09:56.418Z,20.60
2023-09-19T11:12:32.730Z,20.71
2023-09-19T11:15:01.243Z,20.74
2023-09-19T11:17:39.020Z,20.92
2023-09-19T11:20:15.690Z,20.93
2023-09-19T11:22:51.816Z,21.46
2023-09-19T11:25:34.107Z,21.46
2023-09-19T11:28:07.590Z,21.61
2023-09-19T11:30:42.472Z,21.65
2023-09-19T11:33:30.404Z,21.79
2023-09-19T11:36:11.707Z,21.58
2023-09-19T11:38:59.515Z,21.58
2023-09-19T11:41:32.866Z,21.72
2023-09-19T11:44:05.713Z,21.72
2023-09-19T11:46:36.190Z,21.82
2023-09-19T11:49:14.090Z,21.77
2023-09-19T11:51:45.824Z,22.07
2023-09-19T11:54:26.524Z,22.28
2023-09-19T11:56:57.113Z,22.56
2023-09-19T11:59:29.970Z,22.56
2023-09-19T12:02:00.076Z,22.28
2023-09-19T12:04:43.042Z,21.92
2023-09-19T12:07:18.289Z,21.92
2023-09-19T12:09:49.460Z,21.79
2023-09-19T12:12:29.506Z,22.28
2023-09-19T12:15:05.352Z,22.74
2023-09-19T12:17:45.439Z,22.90
2023-09-19T12:20:14.374Z,22.90
2023-09-19T12:22:42.263Z,22.79
2023-09-19T12:25:10.477Z,22.79
2023-09-19T12:27:49.653Z,22.71
2023-09-19T12:32:51.498Z,22.73
2023-09-19T12:35:38.199Z,22.73
2023-09-19T12:38:06.151Z,22.70
2023-09-19T12:40:35.644Z,22.88
2023-09-19T12:43:07.466Z,22.88
2023-09-19T12:45:39.019Z,23.06
2023-09-19T12:48:34.161Z,23.12
2023-09-19T12:51:09.388Z,23.12
2023-09-19T12:53:58.726Z,22.26
2023-09-19T12:56:26.100Z,22.54
2023-09-19T12:59:02.721Z,22.40
2023-09-19T13:01:31.680Z,22.76
2023-09-19T13:04:21.655Z,22.99
2023-09-19T13:06:54.155Z,23.01
2023-09-19T13:09:26.331Z,23.13
2023-09-19T13:11:55.419Z,23.23
2023-09-19T13:14:38.987Z,23.06
2023-09-19T13:17:20.717Z,23.20
2023-09-19T13:19:51.471Z,23.26
2023-09-19T13:22:42.963Z,23.32
2023-09-19T13:25:16.756Z,23.37
2023-09-19T13:27:58.458Z,23.43
2023-09-19T13:30:32.883Z,23.45
2023-09-19T13:33:12.654Z,23.37
2023-09-19T13:35:42.562Z,23.36
2023-09-19T13:38:14.209Z,23.42
2023-09-19T13:40:43.785Z,23.49
2023-09-19T13:43:12.597Z,23.53
2023-09-19T13:45:39.855Z,23.36
2023-09-19T13:48:07.331Z,23.37
2023-09-19T13:50:35.972Z,23.40
2023-09-19T13:53:03.937Z,23.45
2023-09-19T13:55:31.037Z,23.52
2023-09-19T13:57:58.957Z,23.53
2023-09-19T14:00:26.138Z,23.53
2023-09-19T14:02:53.814Z,23.50
2023-09-19T14:05:22.238Z,23.31
2023-09-19T14:07:49.775Z,23.42
2023-09-19T14:10:16.966Z,23.47
2023-09-19T14:12:47.155Z,23.35
2023-09-19T14:15:14.272Z,23.15
2023-09-19T14:17:46.944Z,23.15
2023-09-19T14:20:14.340Z,23.18
2023-09-19T14:22:41.425Z,23.24
2023-09-19T14:25:09.068Z,23.24
2023-09-19T14:27:36.056Z,23.18
2023-09-19T14:30:03.097Z,23.13
2023-09-19T14:32:30.230Z,23.06
2023-09-19T14:34:57.322Z,23.02
2023-09-19T14:37:24.355Z,23.02
2023-09-19T14:39:51.768Z,22.94
2023-09-19T14:42:19.350Z,22.91
2023-09-19T14:44:48.787Z,23.00
2023-09-19T14:47:16.104Z,23.09
2023-09-19T14:49:43.137Z,23.09
2023-09-19T14:52:11.638Z,22.99
2023-09-19T14:54:42.963Z,22.89
2023-09-19T14:57:10.342Z,22.79
2023-09-19T14:59:40.554Z,22.63
2023-09-19T15:02:08.875Z,22.62
2023-09-19T15:04:36.161Z,22.49
2023-09-19T15:07:04.313Z,22.45
2023-09-19T15:09:33.793Z,22.40
2023-09-19T15:12:00.937Z,22.42
2023-09-19T15:14:28.092Z,22.31
2023-09-19T15:16:55.412Z,22.21
2023-09-19T15:19:23.906Z,22.16
2023-09-19T15:21:51.369Z,22.10
2023-09-19T15:24:19.506Z,22.03
2023-09-19T15:26:47.727Z,21.85
2023-09-19T15:29:15.143Z,21.76
2023-09-19T15:31:42.350Z,21.60
2023-09-19T15:34:10.068Z,21.32
2023-09-19T15:36:40.505Z,21.32
2023-09-19T15:39:10.634Z,21.10
2023-09-19T15:41:41.139Z,21.03
2023-09-19T15:44:20.939Z,20.93
2023-09-19T15:46:48.462Z,20.84
2023-09-19T15:49:15.845Z,20.72
2023-09-19T15:51:45.027Z,20.61
2023-09-19T15:54:16.641Z,20.49
2023-09-19T15:56:46.017Z,20.44
2023-09-19T15:59:13.969Z,20.39
2023-09-19T16:01:43.259Z,20.30
2023-09-19T16:04:11.355Z,20.18
2023-09-19T16:06:39.786Z,20.00
2023-09-19T16:09:07.353Z,19.94
2023-09-19T16:11:39.613Z,19.88
2023-09-19T16:14:08.068Z,19.83
2023-09-19T16:16:36.533Z,19.74
2023-09-19T16:19:07.115Z,19.66
2023-09-19T16:21:39.610Z,19.58
2023-09-19T16:24:10.048Z,19.50
2023-09-19T16:26:38.862Z,19.44
2023-09-19T16:29:06.448Z,19.35
2023-09-19T16:31:34.500Z,19.29
2023-09-19T16:34:01.751Z,19.21
2023-09-19T16:36:29.716Z,19.22
2023-09-19T16:38:57.356Z,19.26
2023-09-19T16:41:25.042Z,19.28
2023-09-19T16:43:52.505Z,19.31
2023-09-19T16:46:20.679Z,19.30
2023-09-19T16:49:02.897Z,19.24
2023-09-19T16:51:31.761Z,19.13
2023-09-19T16:53:59.351Z,19.01
2023-09-19T16:56:26.996Z,18.91
2023-09-19T16:58:55.096Z,18.87
2023-09-19T17:01:25.927Z,18.83
2023-09-19T17:03:53.940Z,18.78
2023-09-19T17:06:23.753Z,18.78
2023-09-19T17:08:53.857Z,18.71
2023-09-19T17:11:22.587Z,18.71
2023-09-19T17:13:55.002Z,18.58
2023-09-19T17:16:24.057Z,18.47
2023-09-19T17:18:57.375Z,18.42
2023-09-19T17:21:27.694Z,18.40
2023-09-19T17:23:56.251Z,18.30
2023-09-19T17:26:25.346Z,18.22
2023-09-19T17:28:55.413Z,18.14
2023-09-19T17:31:26.732Z,18.12
2023-09-19T17:33:55.323Z,18.09
2023-09-19T17:36:28.709Z,18.06
2023-09-19T17:39:00.527Z,18.01
2023-09-19T17:41:28.530Z,17.95
2023-09-19T17:44:00.850Z,17.89
2023-09-19T17:46:31.051Z,17.82
2023-09-19T17:49:01.029Z,17.81
2023-09-19T17:51:29.098Z,17.71
2023-09-19T17:53:58.213Z,17.63
2023-09-19T17:56:26.001Z,17.63
2023-09-19T17:58:56.724Z,17.53
2023-09-19T18:01:29.052Z,17.46
2023-09-19T18:04:00.834Z,17.39
2023-09-19T18:06:30.125Z,17.31
2023-09-19T18:08:57.848Z,17.23
2023-09-19T18:11:27.743Z,17.19
2023-09-19T18:13:59.107Z,17.17
2023-09-19T18:16:32.749Z,17.12
2023-09-19T18:19:01.881Z,17.05
2023-09-19T18:21:30.074Z,17.04
2023-09-19T18:24:00.498Z,16.96
2023-09-19T18:26:30.352Z,16.91
2023-09-19T18:28:58.123Z,16.89
2023-09-19T18:31:25.641Z,16.89
2023-09-19T18:33:55.126Z,16.80
2023-09-19T18:36:23.169Z,16.77
2023-09-19T18:38:50.275Z,16.72
2023-09-19T18:41:17.823Z,16.65
2023-09-19T18:43:45.422Z,16.60
2023-09-19T18:46:13.387Z,16.58
2023-09-19T18:48:47.901Z,16.53
2023-09-19T18:51:18.635Z,16.49
2023-09-19T18:53:56.997Z,16.43
2023-09-19T18:56:32.999Z,16.39
2023-09-19T18:59:00.082Z,16.35
2023-09-19T19:01:27.197Z,16.29
2023-09-19T19:03:54.604Z,16.27
2023-09-19T19:06:23.166Z,16.24
2023-09-19T19:08:52.783Z,16.18
2023-09-19T19:11:23.108Z,16.19
2023-09-19T19:13:55.722Z,16.19
2023-09-19T19:16:23.308Z,16.11
2023-09-19T19:18:51.034Z,16.08
2023-09-19T19:21:18.222Z,16.03
2023-09-19T19:23:45.599Z,15.97
2023-09-19T19:26:13.253Z,15.92
2023-09-19T19:28:45.692Z,15.93
2023-09-19T19:31:13.418Z,15.92
2023-09-19T19:33:41.152Z,15.92
2023-09-19T19:36:11.328Z,15.83
2023-09-19T19:38:43.366Z,15.80
2023-09-19T19:41:15.055Z,15.79
2023-09-19T19:43:45.853Z,15.73
2023-09-19T19:46:13.072Z,15.71
2023-09-19T19:48:40.550Z,15.68
2023-09-19T19:51:11.408Z,15.65
2023-09-19T19:53:43.064Z,15.58
2023-09-19T19:56:10.263Z,15.58
2023-09-19T19:58:37.642Z,15.58
2023-09-19T20:01:07.403Z,15.49
2023-09-19T20:03:38.091Z,15.48
2023-09-19T20:06:07.422Z,15.43
2023-09-19T20:08:34.666Z,15.41
2023-09-19T20:11:11.013Z,15.38
2023-09-19T20:13:43.920Z,15.34
2023-09-19T20:16:12.682Z,15.27
2023-09-19T20:18:40.970Z,15.17
2023-09-19T20:21:17.183Z,15.13
2023-09-19T20:23:46.147Z,15.10
2023-09-19T20:26:13.824Z,15.03
2023-09-19T20:28:42.094Z,14.99
2023-09-19T20:31:12.808Z,14.94
2023-09-19T20:33:40.302Z,14.88
2023-09-19T20:36:11.333Z,14.89
2023-09-19T20:38:39.884Z,14.87
2023-09-19T20:41:10.961Z,14.84
2023-09-19T20:43:42.821Z,14.82
2023-09-19T20:46:12.883Z,14.77
2023-09-19T20:48:42.378Z,14.77
2023-09-19T20:51:15.220Z,14.77
2023-09-19T20:53:46.641Z,14.78
2023-09-19T20:56:16.519Z,14.76
2023-09-19T20:58:44.875Z,14.77
2023-09-19T21:01:13.399Z,14.75
2023-09-19T21:03:40.998Z,14.73
2023-09-19T21:06:13.671Z,14.73
2023-09-19T21:08:44.086Z,14.72
2023-09-19T21:11:17.175Z,14.74
2023-09-19T21:13:49.810Z,14.69
2023-09-19T21:16:18.558Z,14.60
2023-09-19T21:18:47.352Z,14.53
2023-09-19T21:21:15.514Z,14.48
2023-09-19T21:23:45.422Z,14.41
2023-09-19T21:26:15.547Z,14.42
2023-09-19T21:28:45.579Z,14.40
2023-09-19T21:31:14.736Z,14.37
2023-09-19T21:33:46.597Z,14.35
2023-09-19T21:36:21.802Z,14.32
2023-09-19T21:38:50.922Z,14.28
2023-09-19T21:41:21.041Z,14.27
2023-09-19T21:43:53.290Z,14.31
2023-09-19T21:46:22.231Z,14.32
2023-09-19T21:48:51.166Z,14.29
2023-09-19T21:51:19.111Z,14.24
2023-09-19T21:53:46.223Z,14.21
2023-09-19T21:56:16.055Z,14.19
2023-09-19T21:58:43.579Z,14.19
2023-09-19T22:01:12.252Z,14.19
2023-09-19T22:03:40.800Z,14.21
2023-09-19T22:06:11.654Z,14.22
2023-09-19T22:08:39.216Z,14.25
2023-09-19T22:11:10.375Z,14.30
2023-09-19T22:13:43.877Z,14.33
2023-09-19T22:16:16.186Z,14.35
2023-09-19T22:18:47.630Z,14.34
2023-09-19T22:21:23.734Z,14.38
2023-09-19T22:23:58.474Z,14.43
2023-09-19T22:26:27.021Z,14.47
2023-09-19T22:28:56.939Z,14.48
2023-09-19T22:31:33.877Z,14.54
2023-09-19T22:34:01.082Z,14.54
2023-09-19T22:36:34.626Z,14.47
2023-09-19T22:39:02.772Z,14.45
2023-09-19T22:41:31.027Z,14.44
2023-09-19T22:43:58.374Z,14.45
2023-09-19T22:46:29.311Z,14.50
2023-09-19T22:48:57.319Z,14.50
2023-09-19T22:51:26.208Z,14.43
2023-09-19T22:53:59.532Z,14.40
2023-09-19T22:56:29.050Z,14.35
2023-09-19T23:00:00.678Z,14.25
2023-09-19T23:02:30.249Z,14.16
2023-09-19T23:05:07.896Z,14.06
2023-09-19T23:07:36.789Z,14.00
2023-09-19T23:10:07.159Z,13.95
2023-09-19T23:12:36.073Z,13.92
2023-09-19T23:15:13.105Z,13.87
2023-09-19T23:17:44.309Z,13.84
2023-09-19T23:20:13.948Z,13.82
2023-09-19T23:22:42.527Z,13.81
2023-09-19T23:25:22.275Z,13.77
2023-09-19T23:27:52.899Z,13.74
2023-09-19T23:30:21.071Z,13.71
2023-09-19T23:32:48.502Z,13.70
2023-09-19T23:35:16.459Z,13.67
2023-09-19T23:37:46.335Z,13.67
2023-09-19T23:40:13.709Z,13.63
2023-09-19T23:42:41.747Z,13.61
2023-09-19T23:45:12.606Z,13.60
2023-09-19T23:47:40.543Z,13.63
2023-09-19T23:50:13.092Z,13.65
2023-09-19T23:52:40.271Z,13.75
2023-09-19T23:55:11.550Z,13.75
2023-09-19T23:57:38.700Z,13.68
